Time;durP1;ratioP1;P1;durP2;ratioP2;P2;SDS_P1;SDS_P2;PMS_P1;PMS_P2;Temp;Humidity;BMP_temperature;BMP_pressure;BME280_temperature;BME280_humidity;BME280_pressure;Samples;Min_cycle;Max_cycle;Signal;HPM_P1;HPM_P2
2021/10/23 00:01:42;;;;;;;;;;;7.40;96.10;;;;;;5069941;28;20354;-71
2021/10/23 00:04:07;;;;;;;;;;;7.50;96.10;;;;;;5069846;28;20411;-72
2021/10/23 00:06:32;;;;;;;;;;;7.50;96.10;;;;;;5070238;28;20428;-73
2021/10/23 00:08:58;;;;;;;;;;;7.50;96.10;;;;;;5070020;28;19920;-73
2021/10/23 00:11:23;;;;;;;;;;;7.50;96.10;;;;;;5070341;28;20374;-72
2021/10/23 00:13:49;;;;;;;;;;;7.60;96.10;;;;;;5072796;28;19912;-72
2021/10/23 00:16:14;;;;;;;;;;;7.60;96.00;;;;;;5074059;28;19908;-72
2021/10/23 00:18:40;;;;;;;;;;;7.60;96.00;;;;;;5084264;28;19912;-73
2021/10/23 00:21:05;;;;;;;;;;;7.70;96.10;;;;;;5091363;28;19962;-72
2021/10/23 00:23:31;;;;;;;;;;;7.70;96.10;;;;;;5094720;28;19915;-72
2021/10/23 00:25:56;;;;;;;;;;;7.60;96.10;;;;;;5096712;28;20379;-72
2021/10/23 00:28:22;;;;;;;;;;;7.70;96.10;;;;;;5096126;28;19999;-72
2021/10/23 00:30:47;;;;;;;;;;;7.70;96.10;;;;;;5096842;28;19912;-73
2021/10/23 00:33:13;;;;;;;;;;;7.70;96.10;;;;;;5096611;28;19912;-72
2021/10/23 00:35:38;;;;;;;;;;;7.70;96.10;;;;;;5096640;28;20375;-72
2021/10/23 00:38:04;;;;;;;;;;;7.70;96.00;;;;;;5096678;28;19995;-72
2021/10/23 00:40:29;;;;;;;;;;;7.60;96.00;;;;;;5096556;28;19963;-72
2021/10/23 00:42:56;;;;;;;;;;;7.60;96.10;;;;;;5096364;28;19908;-71
2021/10/23 00:45:22;;;;;;;;;;;7.60;96.10;;;;;;5096399;28;19908;-71
2021/10/23 00:47:47;;;;;;;;;;;7.60;96.10;;;;;;5095892;28;19920;-72
2021/10/23 00:50:12;;;;;;;;;;;7.60;96.20;;;;;;5096355;28;19915;-73
2021/10/23 00:52:38;;;;;;;;;;;7.60;96.20;;;;;;5096202;28;19915;-72
2021/10/23 00:55:06;;;;;;;;;;;7.50;96.10;;;;;;5096288;28;19908;-72
2021/10/23 00:57:32;;;;;;;;;;;7.50;96.10;;;;;;5096387;28;20368;-72
2021/10/23 00:59:57;;;;;;;;;;;7.50;96.10;;;;;;5073466;28;19923;-73
2021/10/23 01:02:22;;;;;;;;;;;7.50;96.00;;;;;;5091224;28;19915;-73
2021/10/23 01:04:48;;;;;;;;;;;7.50;96.00;;;;;;5094373;28;19914;-72
2021/10/23 01:07:14;;;;;;;;;;;7.50;96.00;;;;;;5095538;28;19922;-72
2021/10/23 01:09:40;;;;;;;;;;;7.50;95.90;;;;;;5095660;28;19915;-72
2021/10/23 01:12:09;;;;;;;;;;;7.40;95.90;;;;;;5096071;28;19915;-73
2021/10/23 01:14:35;;;;;;;;;;;7.40;95.90;;;;;;5096009;28;19914;-72
2021/10/23 01:17:01;;;;;;;;;;;7.30;95.90;;;;;;5095392;28;19951;-72
2021/10/23 01:19:26;;;;;;;;;;;7.30;95.90;;;;;;5095835;28;19916;-72
2021/10/23 01:21:53;;;;;;;;;;;7.30;95.90;;;;;;5095734;28;19908;-73
2021/10/23 01:24:19;;;;;;;;;;;7.20;95.90;;;;;;5094814;28;19924;-72
2021/10/23 01:26:45;;;;;;;;;;;7.20;96.00;;;;;;5095852;28;19915;-72
2021/10/23 01:29:12;;;;;;;;;;;7.10;96.00;;;;;;5095462;28;19908;-72
2021/10/23 01:31:37;;;;;;;;;;;7.10;96.00;;;;;;5095182;28;19908;-71
2021/10/23 01:34:09;;;;;;;;;;;7.10;96.10;;;;;;5095539;28;19908;-72
2021/10/23 01:36:35;;;;;;;;;;;7.00;96.10;;;;;;5095505;28;19914;-73
2021/10/23 01:39:00;;;;;;;;;;;7.00;96.10;;;;;;5095312;28;19907;-73
2021/10/23 01:41:26;;;;;;;;;;;7.00;96.00;;;;;;5095450;28;20019;-72
2021/10/23 01:43:51;;;;;;;;;;;6.90;96.00;;;;;;5095428;28;19908;-71
2021/10/23 01:46:17;;;;;;;;;;;6.90;95.90;;;;;;5094618;28;19926;-72
2021/10/23 01:48:43;;;;;;;;;;;6.80;95.90;;;;;;5095216;28;19923;-72
2021/10/23 01:51:11;;;;;;;;;;;6.80;96.00;;;;;;5076979;28;19908;-72
2021/10/23 01:53:37;;;;;;;;;;;6.80;96.00;;;;;;5095203;28;20365;-72
2021/10/23 01:56:02;;;;;;;;;;;6.80;96.00;;;;;;5095217;28;19915;-73
2021/10/23 01:58:28;;;;;;;;;;;6.80;96.00;;;;;;5095201;28;20384;-73
2021/10/23 02:00:54;;;;;;;;;;;6.80;96.00;;;;;;5094542;28;19908;-73
2021/10/23 02:03:19;;;;;;;;;;;6.80;96.10;;;;;;5094863;28;19947;-73
2021/10/23 02:05:45;;;;;;;;;;;6.80;96.10;;;;;;5095064;28;20387;-73
2021/10/23 02:08:10;;;;;;;;;;;6.70;96.10;;;;;;5094848;28;19923;-71
2021/10/23 02:10:35;;;;;;;;;;;6.80;96.20;;;;;;5094812;28;19908;-72
2021/10/23 02:13:01;;;;;;;;;;;6.70;96.30;;;;;;5094825;28;19908;-72
2021/10/23 02:15:26;;;;;;;;;;;6.80;96.20;;;;;;5094238;28;19917;-73
2021/10/23 02:17:52;;;;;;;;;;;6.80;96.20;;;;;;5094770;28;19908;-72
2021/10/23 02:20:17;;;;;;;;;;;6.80;96.20;;;;;;5094793;28;20007;-72
2021/10/23 02:22:43;;;;;;;;;;;6.90;96.10;;;;;;5094668;28;20349;-73
2021/10/23 02:25:10;;;;;;;;;;;6.90;96.10;;;;;;5094593;28;20322;-73
2021/10/23 02:27:35;;;;;;;;;;;6.90;96.00;;;;;;5094621;28;19916;-73
2021/10/23 02:30:01;;;;;;;;;;;7.00;96.10;;;;;;5094092;28;19953;-72
2021/10/23 02:32:27;;;;;;;;;;;7.00;96.00;;;;;;5094520;28;19916;-72
2021/10/23 02:34:52;;;;;;;;;;;7.10;95.90;;;;;;5094473;28;20353;-72
2021/10/23 02:37:18;;;;;;;;;;;7.10;95.90;;;;;;5075954;28;19959;-72
2021/10/23 02:39:43;;;;;;;;;;;7.00;95.80;;;;;;5076130;28;19908;-73
2021/10/23 02:42:09;;;;;;;;;;;7.10;95.90;;;;;;5094256;28;19908;-72
2021/10/23 02:44:34;;;;;;;;;;;7.10;95.90;;;;;;5093627;28;19908;-72
2021/10/23 02:47:00;;;;;;;;;;;7.10;95.90;;;;;;5093888;28;19920;-72
2021/10/23 02:49:25;;;;;;;;;;;7.10;95.90;;;;;;5094216;28;20265;-72
2021/10/23 02:51:51;;;;;;;;;;;7.20;95.90;;;;;;5094126;28;19962;-72
2021/10/23 02:54:16;;;;;;;;;;;7.20;96.00;;;;;;5093915;28;19930;-72
2021/10/23 02:56:42;;;;;;;;;;;7.20;96.00;;;;;;5094058;28;19916;-73
2021/10/23 02:59:07;;;;;;;;;;;7.30;96.00;;;;;;5093591;28;20371;-72
2021/10/23 03:01:33;;;;;;;;;;;7.30;96.30;;;;;;5075833;28;20407;-71
2021/10/23 03:03:58;;;;;;;;;;;7.30;96.00;;;;;;5075886;28;19912;-73
2021/10/23 03:06:24;;;;;;;;;;;7.30;96.00;;;;;;5093951;28;19915;-71
2021/10/23 03:08:49;;;;;;;;;;;7.30;96.00;;;;;;5093960;28;19916;-72
2021/10/23 03:11:15;;;;;;;;;;;7.30;95.90;;;;;;5093745;28;19916;-72
2021/10/23 03:13:40;;;;;;;;;;;7.30;96.00;;;;;;5093411;28;19909;-72
2021/10/23 03:16:06;;;;;;;;;;;7.30;96.00;;;;;;5093805;28;19950;-72
2021/10/23 03:18:31;;;;;;;;;;;7.30;95.90;;;;;;5093673;28;19968;-72
2021/10/23 03:20:57;;;;;;;;;;;7.30;96.10;;;;;;5075660;28;19909;-72
2021/10/23 03:23:22;;;;;;;;;;;7.20;95.80;;;;;;5093642;28;19908;-71
2021/10/23 03:25:48;;;;;;;;;;;7.20;95.80;;;;;;5093789;28;19958;-72
2021/10/23 03:28:13;;;;;;;;;;;7.20;95.70;;;;;;5093167;28;20014;-72
2021/10/23 03:30:39;;;;;;;;;;;7.20;95.80;;;;;;5093569;28;19909;-73
2021/10/23 03:33:05;;;;;;;;;;;7.30;95.80;;;;;;5093572;28;20428;-73
2021/10/23 03:35:30;;;;;;;;;;;7.30;95.90;;;;;;5093691;28;19986;-73
2021/10/23 03:37:56;;;;;;;;;;;7.30;95.90;;;;;;5093671;28;19998;-73
2021/10/23 03:40:22;;;;;;;;;;;7.30;95.90;;;;;;5093608;28;20391;-72
2021/10/23 03:42:47;;;;;;;;;;;7.30;95.90;;;;;;5093118;28;19908;-71
2021/10/23 03:45:13;;;;;;;;;;;7.30;95.80;;;;;;5093353;28;19962;-72
2021/10/23 03:47:38;;;;;;;;;;;7.30;95.80;;;;;;5094150;28;19920;-72
2021/10/23 03:50:04;;;;;;;;;;;7.20;95.80;;;;;;5097566;28;20268;-73
2021/10/23 03:52:30;;;;;;;;;;;7.20;95.80;;;;;;5097725;28;19912;-72
2021/10/23 03:54:55;;;;;;;;;;;7.20;95.90;;;;;;5097479;28;20011;-73
2021/10/23 03:57:21;;;;;;;;;;;7.20;95.90;;;;;;5097086;28;19915;-72
2021/10/23 03:59:46;;;;;;;;;;;7.20;95.90;;;;;;5097233;28;19908;-73
2021/10/23 04:02:11;;;;;;;;;;;7.20;95.90;;;;;;5097540;28;19915;-73
2021/10/23 04:04:37;;;;;;;;;;;7.20;95.90;;;;;;5097271;28;19908;-73
2021/10/23 04:07:03;;;;;;;;;;;7.10;95.90;;;;;;5097315;28;19915;-73
2021/10/23 04:09:29;;;;;;;;;;;7.10;95.90;;;;;;5097525;28;19923;-72
2021/10/23 04:11:54;;;;;;;;;;;7.10;96.00;;;;;;5096710;28;19943;-73
2021/10/23 04:14:20;;;;;;;;;;;7.00;96.00;;;;;;5096981;28;19908;-73
2021/10/23 04:16:46;;;;;;;;;;;7.00;96.00;;;;;;5097092;28;19908;-71
2021/10/23 04:19:11;;;;;;;;;;;7.00;96.10;;;;;;5097058;28;20353;-71
2021/10/23 04:21:37;;;;;;;;;;;6.90;96.00;;;;;;5096919;28;19955;-71
2021/10/23 04:24:02;;;;;;;;;;;6.90;96.10;;;;;;5096851;28;20014;-72
2021/10/23 04:26:28;;;;;;;;;;;6.90;96.40;;;;;;5096553;28;19958;-74
2021/10/23 04:28:53;;;;;;;;;;;6.90;96.10;;;;;;5078613;28;19916;-72
2021/10/23 04:31:19;;;;;;;;;;;6.90;96.10;;;;;;5096786;28;19935;-73
2021/10/23 04:33:44;;;;;;;;;;;6.90;96.10;;;;;;5096734;28;19908;-73
2021/10/23 04:36:10;;;;;;;;;;;6.90;96.00;;;;;;5096619;28;19991;-73
2021/10/23 04:38:35;;;;;;;;;;;6.90;96.00;;;;;;5096711;28;19915;-73
2021/10/23 04:41:01;;;;;;;;;;;6.90;96.00;;;;;;5096209;28;19915;-72
2021/10/23 04:43:26;;;;;;;;;;;6.90;96.00;;;;;;5096483;28;20382;-72
2021/10/23 04:45:52;;;;;;;;;;;6.90;96.00;;;;;;5096258;28;19942;-72
2021/10/23 04:48:17;;;;;;;;;;;6.90;96.00;;;;;;5096599;28;20256;-72
2021/10/23 04:50:43;;;;;;;;;;;6.90;96.00;;;;;;5096360;28;19908;-73
2021/10/23 04:53:08;;;;;;;;;;;6.90;96.10;;;;;;5078262;28;20287;-72
2021/10/23 04:55:33;;;;;;;;;;;6.90;96.00;;;;;;5095823;28;19930;-73
2021/10/23 04:57:59;;;;;;;;;;;6.90;96.10;;;;;;5078122;28;20023;-72
2021/10/23 05:00:25;;;;;;;;;;;6.90;96.10;;;;;;5076733;28;19908;-72
2021/10/23 05:02:50;;;;;;;;;;;6.90;96.10;;;;;;5078296;28;19908;-71
2021/10/23 05:05:16;;;;;;;;;;;6.90;96.10;;;;;;5096180;28;19908;-72
2021/10/23 05:07:41;;;;;;;;;;;6.90;96.10;;;;;;5095984;28;19916;-71
2021/10/23 05:10:07;;;;;;;;;;;6.90;96.10;;;;;;5095638;28;19909;-72
2021/10/23 05:12:32;;;;;;;;;;;6.90;96.00;;;;;;5096012;28;19915;-73
2021/10/23 05:14:58;;;;;;;;;;;6.90;96.00;;;;;;5095833;28;19919;-71
2021/10/23 05:17:23;;;;;;;;;;;6.90;96.10;;;;;;5095993;28;19908;-72
2021/10/23 05:19:49;;;;;;;;;;;6.90;96.10;;;;;;5095895;28;19908;-72
2021/10/23 05:22:14;;;;;;;;;;;6.90;96.00;;;;;;5096009;28;19908;-72
2021/10/23 05:24:40;;;;;;;;;;;6.90;96.10;;;;;;5095337;28;19908;-72
2021/10/23 05:27:05;;;;;;;;;;;6.90;96.10;;;;;;5095730;28;19908;-72
2021/10/23 05:29:30;;;;;;;;;;;6.90;96.10;;;;;;5095480;28;19908;-72
2021/10/23 05:31:56;;;;;;;;;;;6.90;96.00;;;;;;5095677;28;19908;-73
2021/10/23 05:34:23;;;;;;;;;;;7.00;96.10;;;;;;5095635;28;19912;-72
2021/10/23 05:36:49;;;;;;;;;;;7.00;96.00;;;;;;5095191;28;19912;-73
2021/10/23 05:39:14;;;;;;;;;;;7.10;96.00;;;;;;5095438;28;19955;-73
2021/10/23 05:41:40;;;;;;;;;;;7.00;95.90;;;;;;5095509;28;19908;-72
2021/10/23 05:44:05;;;;;;;;;;;7.00;95.90;;;;;;5095402;28;19908;-72
2021/10/23 05:46:31;;;;;;;;;;;7.00;95.80;;;;;;5095305;28;20364;-73
2021/10/23 05:48:56;;;;;;;;;;;7.00;95.80;;;;;;5095231;28;20016;-73
2021/10/23 05:51:22;;;;;;;;;;;7.00;95.70;;;;;;5076644;28;19908;-72
2021/10/23 05:53:47;;;;;;;;;;;7.00;95.60;;;;;;5095316;28;19908;-72
2021/10/23 05:56:12;;;;;;;;;;;6.90;95.60;;;;;;5095193;28;19916;-73
2021/10/23 05:58:38;;;;;;;;;;;6.80;95.50;;;;;;5095093;28;19912;-72
2021/10/23 06:01:06;;;;;;;;;;;6.80;95.50;;;;;;5095144;28;20010;-72
2021/10/23 06:03:34;;;;;;;;;;;6.70;95.50;;;;;;5095016;28;19908;-71
2021/10/23 06:06:00;;;;;;;;;;;6.60;95.40;;;;;;5094464;28;19914;-73
2021/10/23 06:08:25;;;;;;;;;;;6.60;95.40;;;;;;5094857;28;19916;-73
2021/10/23 06:10:51;;;;;;;;;;;6.50;95.40;;;;;;5094552;28;19908;-72
2021/10/23 06:13:18;;;;;;;;;;;6.50;95.40;;;;;;5094803;28;20356;-72
2021/10/23 06:15:43;;;;;;;;;;;6.40;95.30;;;;;;5094747;28;19908;-72
2021/10/23 06:18:09;;;;;;;;;;;6.40;95.30;;;;;;5094711;28;19961;-73
2021/10/23 06:20:34;;;;;;;;;;;6.40;95.30;;;;;;5094093;28;20189;-71
2021/10/23 06:23:00;;;;;;;;;;;6.40;95.40;;;;;;5094683;28;19908;-72
2021/10/23 06:25:25;;;;;;;;;;;6.40;95.50;;;;;;5094457;28;19915;-72
2021/10/23 06:27:51;;;;;;;;;;;6.50;95.50;;;;;;5076358;28;20376;-72
2021/10/23 06:30:17;;;;;;;;;;;6.50;95.60;;;;;;5094610;28;20379;-71
2021/10/23 06:32:44;;;;;;;;;;;6.60;95.60;;;;;;5094438;28;19908;-72
2021/10/23 06:35:09;;;;;;;;;;;6.60;95.60;;;;;;5093986;28;19909;-72
2021/10/23 06:37:35;;;;;;;;;;;6.70;95.50;;;;;;5076114;28;19915;-72
2021/10/23 06:40:00;;;;;;;;;;;6.70;95.50;;;;;;5094470;28;19960;-73
2021/10/23 06:42:25;;;;;;;;;;;6.70;95.50;;;;;;5094275;28;20260;-73
2021/10/23 06:44:51;;;;;;;;;;;6.70;95.50;;;;;;5094495;28;20408;-72
2021/10/23 06:47:17;;;;;;;;;;;6.60;95.50;;;;;;5094034;28;20368;-73
2021/10/23 06:49:43;;;;;;;;;;;6.60;95.50;;;;;;5075474;28;19961;-74
2021/10/23 06:52:10;;;;;;;;;;;6.60;95.50;;;;;;5093441;28;22233;-73
2021/10/23 06:54:35;;;;;;;;;;;6.60;95.50;;;;;;5094148;28;19908;-73
2021/10/23 06:57:01;;;;;;;;;;;6.60;95.50;;;;;;5093973;28;19908;-72
2021/10/23 06:59:26;;;;;;;;;;;6.70;95.60;;;;;;5094104;28;20233;-72
2021/10/23 07:01:52;;;;;;;;;;;6.70;95.60;;;;;;5093943;28;20003;-72
2021/10/23 07:04:17;;;;;;;;;;;6.70;95.70;;;;;;5093384;28;19987;-73
2021/10/23 07:06:43;;;;;;;;;;;6.80;95.70;;;;;;5093949;28;20364;-72
2021/10/23 07:09:08;;;;;;;;;;;6.80;95.70;;;;;;5093836;28;20332;-73
2021/10/23 07:11:34;;;;;;;;;;;6.90;95.70;;;;;;5093716;28;19908;-74
2021/10/23 07:13:59;;;;;;;;;;;6.90;95.70;;;;;;5094029;28;19908;-73
2021/10/23 07:16:24;;;;;;;;;;;7.00;95.90;;;;;;5093743;28;19931;-74
2021/10/23 07:18:50;;;;;;;;;;;7.10;95.90;;;;;;5093362;28;20363;-74
2021/10/23 07:21:15;;;;;;;;;;;7.10;95.90;;;;;;5094012;28;19908;-73
2021/10/23 07:23:41;;;;;;;;;;;7.20;95.80;;;;;;5080276;28;19958;-73
2021/10/23 07:26:07;;;;;;;;;;;7.20;95.90;;;;;;5070615;28;19913;-73
2021/10/23 07:28:32;;;;;;;;;;;7.30;95.90;;;;;;5070925;28;19916;-72
2021/10/23 07:30:58;;;;;;;;;;;7.30;95.90;;;;;;5070915;28;20331;-72
2021/10/23 07:33:26;;;;;;;;;;;7.40;95.90;;;;;;5070311;28;19912;-73
2021/10/23 07:35:51;;;;;;;;;;;7.50;95.90;;;;;;5070507;28;19912;-74
2021/10/23 07:38:17;;;;;;;;;;;7.50;96.00;;;;;;5070529;28;19909;-73
2021/10/23 07:40:43;;;;;;;;;;;7.60;95.90;;;;;;5070479;28;19912;-73
2021/10/23 07:43:09;;;;;;;;;;;7.70;95.90;;;;;;5052628;28;20311;-72
2021/10/23 07:45:35;;;;;;;;;;;7.70;95.90;;;;;;5070499;28;20277;-73
2021/10/23 07:48:03;;;;;;;;;;;7.80;95.90;;;;;;5083409;28;19926;-74
2021/10/23 07:50:28;;;;;;;;;;;7.90;95.90;;;;;;5090049;28;19938;-73
2021/10/23 07:52:54;;;;;;;;;;;7.90;95.90;;;;;;5091381;28;20388;-73
2021/10/23 07:55:19;;;;;;;;;;;7.90;95.80;;;;;;5093608;28;20368;-74
2021/10/23 07:57:45;;;;;;;;;;;8.00;95.90;;;;;;5093243;28;19954;-73
2021/10/23 08:00:11;;;;;;;;;;;8.10;95.80;;;;;;5093357;28;19908;-73
2021/10/23 08:02:46;;;;;;;;;;;8.10;95.80;;;;;;5092987;28;19953;-73
2021/10/23 08:05:12;;;;;;;;;;;8.10;95.90;;;;;;5093411;28;19930;-73
2021/10/23 08:07:37;;;;;;;;;;;8.30;95.90;;;;;;5093443;28;20504;-74
2021/10/23 08:10:03;;;;;;;;;;;8.30;95.80;;;;;;5093301;28;19908;-73
2021/10/23 08:12:29;;;;;;;;;;;8.40;95.80;;;;;;5093266;28;19912;-74
2021/10/23 08:14:54;;;;;;;;;;;8.40;95.80;;;;;;5093285;28;19915;-73
2021/10/23 08:17:20;;;;;;;;;;;8.50;95.80;;;;;;5092699;28;20281;-74
2021/10/23 08:19:45;;;;;;;;;;;8.60;95.80;;;;;;5093301;28;19969;-73
2021/10/23 08:22:11;;;;;;;;;;;8.60;95.80;;;;;;5093122;28;19947;-73
2021/10/23 08:24:36;;;;;;;;;;;8.60;95.70;;;;;;5093212;28;19915;-74
2021/10/23 08:27:02;;;;;;;;;;;8.70;95.80;;;;;;5093366;28;19908;-74
2021/10/23 08:29:27;;;;;;;;;;;8.70;95.80;;;;;;5093066;28;19912;-74
2021/10/23 08:31:53;;;;;;;;;;;8.80;95.70;;;;;;5092491;28;19909;-72
2021/10/23 08:34:18;;;;;;;;;;;8.80;95.70;;;;;;5094845;28;19918;-74
2021/10/23 08:36:43;;;;;;;;;;;8.90;95.70;;;;;;5096796;28;19908;-75
2021/10/23 08:39:09;;;;;;;;;;;8.80;95.70;;;;;;5096591;28;19909;-74
2021/10/23 08:41:36;;;;;;;;;;;8.90;95.80;;;;;;5096569;28;19912;-74
2021/10/23 08:44:03;;;;;;;;;;;8.90;95.80;;;;;;5096443;28;20007;-74
2021/10/23 08:46:28;;;;;;;;;;;8.90;95.90;;;;;;5095936;28;20296;-74
2021/10/23 08:48:54;;;;;;;;;;;9.00;95.90;;;;;;5096461;28;19916;-73
2021/10/23 08:51:21;;;;;;;;;;;9.00;95.90;;;;;;5096646;28;19908;-74
2021/10/23 08:53:48;;;;;;;;;;;9.00;95.80;;;;;;5096160;28;19908;-75
2021/10/23 08:56:13;;;;;;;;;;;9.10;95.90;;;;;;5096231;28;20383;-74
2021/10/23 08:58:39;;;;;;;;;;;9.30;95.90;;;;;;5096383;28;19908;-74
2021/10/23 09:01:07;;;;;;;;;;;9.30;95.90;;;;;;5095857;28;20375;-76
2021/10/23 09:03:33;;;;;;;;;;;9.40;95.80;;;;;;5096277;28;19908;-76
2021/10/23 09:05:58;;;;;;;;;;;9.40;95.80;;;;;;5096166;28;19912;-73
2021/10/23 09:08:26;;;;;;;;;;;9.40;95.70;;;;;;5095903;28;20014;-75
2021/10/23 09:10:52;;;;;;;;;;;9.50;95.80;;;;;;5096045;28;19908;-74
2021/10/23 09:13:30;;;;;;;;;;;9.40;95.80;;;;;;5096019;28;19908;-74
2021/10/23 09:15:56;;;;;;;;;;;9.50;95.80;;;;;;5095501;28;19961;-76
2021/10/23 09:18:39;;;;;;;;;;;9.60;95.80;;;;;;5096049;28;19999;-75
2021/10/23 09:21:14;;;;;;;;;;;9.60;95.80;;;;;;5095960;28;19908;-75
2021/10/23 09:23:39;;;;;;;;;;;9.60;95.70;;;;;;5095719;28;20357;-74
2021/10/23 09:26:05;;;;;;;;;;;9.60;95.70;;;;;;5095906;28;20017;-74
2021/10/23 09:28:32;;;;;;;;;;;9.70;95.70;;;;;;5077548;28;20012;-73
2021/10/23 09:30:58;;;;;;;;;;;9.70;95.70;;;;;;5095338;28;19966;-74
2021/10/23 09:33:25;;;;;;;;;;;9.70;95.70;;;;;;5095644;28;19916;-74
2021/10/23 09:35:51;;;;;;;;;;;9.80;95.70;;;;;;5095739;28;19908;-74
2021/10/23 09:38:17;;;;;;;;;;;9.80;95.70;;;;;;5095503;28;20288;-73
2021/10/23 09:40:46;;;;;;;;;;;9.90;95.70;;;;;;5095598;28;19908;-74
2021/10/23 09:43:19;;;;;;;;;;;10.00;95.70;;;;;;5095461;28;19909;-74
2021/10/23 09:46:00;;;;;;;;;;;10.10;95.70;;;;;;5094469;28;20364;-74
2021/10/23 09:48:34;;;;;;;;;;;10.20;95.70;;;;;;5095197;28;19974;-74
2021/10/23 09:51:14;;;;;;;;;;;10.30;95.60;;;;;;5095195;28;20418;-74
2021/10/23 09:53:40;;;;;;;;;;;10.40;95.70;;;;;;5095320;28;19908;-74
2021/10/23 09:56:06;;;;;;;;;;;10.50;95.70;;;;;;5095268;28;19908;-75
2021/10/23 09:58:32;;;;;;;;;;;10.60;95.60;;;;;;5094556;28;19908;-75
2021/10/23 10:00:57;;;;;;;;;;;10.70;95.60;;;;;;5095212;28;19962;-75
2021/10/23 10:03:23;;;;;;;;;;;10.80;95.60;;;;;;5094988;28;20371;-73
2021/10/23 10:05:58;;;;;;;;;;;10.90;95.60;;;;;;5095154;28;19912;-74
2021/10/23 10:08:25;;;;;;;;;;;10.80;95.50;;;;;;5094879;28;20006;-75
2021/10/23 10:10:50;;;;;;;;;;;10.80;95.60;;;;;;5094753;28;20368;-75
2021/10/23 10:13:17;;;;;;;;;;;10.80;95.60;;;;;;5076195;28;19952;-75
2021/10/23 10:15:53;;;;;;;;;;;10.80;95.70;;;;;;5094880;28;19951;-74
2021/10/23 10:18:20;;;;;;;;;;;10.90;95.80;;;;;;5094827;28;19946;-74
2021/10/23 10:20:46;;;;;;;;;;;11.00;95.80;;;;;;5094682;28;19991;-74
2021/10/23 10:23:29;;;;;;;;;;;11.00;95.70;;;;;;5094667;28;19916;-74
2021/10/23 10:26:13;;;;;;;;;;;11.10;95.80;;;;;;5094772;28;19915;-72
2021/10/23 10:28:58;;;;;;;;;;;11.30;95.80;;;;;;5093929;28;19970;-74
2021/10/23 10:31:42;;;;;;;;;;;11.40;95.80;;;;;;5076235;28;19908;-75
2021/10/23 10:34:12;;;;;;;;;;;11.50;95.80;;;;;;5094528;28;20368;-74
2021/10/23 10:36:38;;;;;;;;;;;11.50;95.70;;;;;;5094649;28;19938;-73
2021/10/23 10:39:39;;;;;;;;;;;11.50;95.70;;;;;;5094300;28;19976;-75
2021/10/23 10:45:28;;;;;;;;;;;11.50;95.80;;;;;;5094775;28;19930;-75
2021/10/23 10:48:12;;;;;;;;;;;11.50;95.70;;;;;;5094556;28;20417;-75
2021/10/23 10:50:42;;;;;;;;;;;11.50;95.70;;;;;;5094206;28;20254;-75
2021/10/23 10:53:26;;;;;;;;;;;11.40;95.70;;;;;;5094204;28;20379;-75
2021/10/23 10:55:54;;;;;;;;;;;11.50;95.90;;;;;;5093659;28;19973;-74
2021/10/23 10:58:38;;;;;;;;;;;11.60;95.90;;;;;;5094067;28;19908;-75
2021/10/23 11:01:17;;;;;;;;;;;11.80;95.90;;;;;;5094153;28;20356;-75
2021/10/23 11:03:51;;;;;;;;;;;12.00;95.80;;;;;;5094225;28;19987;-75
2021/10/23 11:06:35;;;;;;;;;;;12.10;95.80;;;;;;5093844;28;20377;-75
2021/10/23 11:09:16;;;;;;;;;;;12.30;95.80;;;;;;5093873;28;19923;-76
2021/10/23 11:11:44;;;;;;;;;;;12.50;95.80;;;;;;5093386;28;20288;-75
2021/10/23 11:14:10;;;;;;;;;;;12.50;95.60;;;;;;5093789;28;19908;-74
2021/10/23 11:16:38;;;;;;;;;;;12.50;95.60;;;;;;5093813;28;19909;-74
2021/10/23 11:19:04;;;;;;;;;;;12.60;95.70;;;;;;5093913;28;19908;-75
2021/10/23 11:21:32;;;;;;;;;;;12.70;95.70;;;;;;5093870;28;19914;-75
2021/10/23 11:23:57;;;;;;;;;;;12.80;95.70;;;;;;5093708;28;20364;-74
2021/10/23 11:26:23;;;;;;;;;;;12.90;95.70;;;;;;5075165;28;19909;-75
2021/10/23 11:28:49;;;;;;;;;;;12.90;95.60;;;;;;5075468;28;20567;-76
2021/10/23 11:31:18;;;;;;;;;;;12.90;95.60;;;;;;5093810;28;20378;-75
2021/10/23 11:33:44;;;;;;;;;;;12.90;95.60;;;;;;5093742;28;20368;-74
2021/10/23 11:36:13;;;;;;;;;;;12.80;95.60;;;;;;5093594;28;20006;-73
2021/10/23 11:38:39;;;;;;;;;;;12.80;95.70;;;;;;5093634;28;20293;-75
2021/10/23 11:41:04;;;;;;;;;;;12.80;95.80;;;;;;5093156;28;19915;-76
2021/10/23 11:43:30;;;;;;;;;;;12.90;95.80;;;;;;5093638;28;19962;-75
2021/10/23 11:45:57;;;;;;;;;;;12.90;95.80;;;;;;5093415;28;20387;-76
2021/10/23 11:48:22;;;;;;;;;;;13.00;95.80;;;;;;5093439;28;19924;-74
2021/10/23 11:50:49;;;;;;;;;;;13.10;95.80;;;;;;5093415;28;19913;-73
2021/10/23 11:53:17;;;;;;;;;;;13.10;95.70;;;;;;5093613;28;19915;-73
2021/10/23 11:55:45;;;;;;;;;;;13.10;95.70;;;;;;5092952;28;20369;-73
2021/10/23 11:58:17;;;;;;;;;;;13.20;95.70;;;;;;5093586;28;19912;-73
2021/10/23 12:00:45;;;;;;;;;;;13.30;95.70;;;;;;5093256;28;19912;-73
2021/10/23 12:03:13;;;;;;;;;;;13.40;95.60;;;;;;5093478;28;20318;-74
2021/10/23 12:05:43;;;;;;;;;;;13.30;95.60;;;;;;5093579;28;19914;-73
2021/10/23 12:08:29;;;;;;;;;;;13.30;95.60;;;;;;5093242;28;20331;-74
2021/10/23 12:11:05;;;;;;;;;;;13.40;95.70;;;;;;5096894;28;19923;-74
2021/10/23 12:13:44;;;;;;;;;;;13.30;95.60;;;;;;5097200;28;19934;-74
2021/10/23 12:16:09;;;;;;;;;;;13.30;95.70;;;;;;5078906;28;19912;-73
2021/10/23 12:18:39;;;;;;;;;;;13.40;95.70;;;;;;5097167;28;19961;-74
2021/10/23 12:21:13;;;;;;;;;;;13.40;95.70;;;;;;5096875;28;19912;-74
2021/10/23 12:23:52;;;;;;;;;;;13.40;95.60;;;;;;5096638;28;20020;-74
2021/10/23 12:26:24;;;;;;;;;;;13.30;95.60;;;;;;5097096;28;19908;-75
2021/10/23 12:28:56;;;;;;;;;;;13.30;95.60;;;;;;5097088;28;19916;-73
2021/10/23 12:31:21;;;;;;;;;;;13.30;95.70;;;;;;5078575;28;20280;-74
2021/10/23 12:34:02;;;;;;;;;;;13.40;95.70;;;;;;5096712;28;19908;-74
2021/10/23 12:36:27;;;;;;;;;;;13.40;95.70;;;;;;5096646;28;19947;-74
2021/10/23 12:38:53;;;;;;;;;;;13.40;95.60;;;;;;5096225;28;19955;-74
2021/10/23 12:41:19;;;;;;;;;;;13.40;95.60;;;;;;5096539;28;19912;-74
2021/10/23 12:43:45;;;;;;;;;;;13.50;95.70;;;;;;5096526;28;19909;-74
2021/10/23 12:46:11;;;;;;;;;;;13.50;95.60;;;;;;5096360;28;19920;-74
2021/10/23 12:48:37;;;;;;;;;;;13.50;95.60;;;;;;5096937;28;19916;-75
2021/10/23 12:51:03;;;;;;;;;;;13.50;95.60;;;;;;5096376;28;19908;-76
2021/10/23 12:53:28;;;;;;;;;;;13.40;95.60;;;;;;5095911;28;19916;-74
2021/10/23 12:55:54;;;;;;;;;;;13.50;95.70;;;;;;5096516;28;19908;-75
2021/10/23 12:58:19;;;;;;;;;;;13.50;95.70;;;;;;5096387;28;19908;-75
2021/10/23 13:00:46;;;;;;;;;;;13.50;95.70;;;;;;5096306;28;20007;-74
2021/10/23 13:03:12;;;;;;;;;;;13.50;95.60;;;;;;5096120;28;19908;-75
2021/10/23 13:05:38;;;;;;;;;;;13.50;95.70;;;;;;5096148;28;19915;-75
2021/10/23 13:08:03;;;;;;;;;;;13.50;95.70;;;;;;5095562;28;20352;-75
2021/10/23 13:10:29;;;;;;;;;;;13.40;95.70;;;;;;5096135;28;19965;-74
2021/10/23 13:12:57;;;;;;;;;;;13.40;95.70;;;;;;5096083;28;19923;-74
2021/10/23 13:15:22;;;;;;;;;;;13.40;95.70;;;;;;5095889;28;20003;-74
2021/10/23 13:17:47;;;;;;;;;;;13.40;95.70;;;;;;5096013;28;19951;-74
2021/10/23 13:20:13;;;;;;;;;;;13.40;95.70;;;;;;5094708;28;19908;-76
2021/10/23 13:22:42;;;;;;;;;;;13.40;95.70;;;;;;5095408;28;20273;-75
2021/10/23 13:25:08;;;;;;;;;;;13.40;95.70;;;;;;5095687;28;20007;-74
2021/10/23 13:27:33;;;;;;;;;;;13.40;95.70;;;;;;5095742;28;20006;-74
2021/10/23 13:29:59;;;;;;;;;;;13.40;95.70;;;;;;5077687;28;19908;-74
2021/10/23 13:32:24;;;;;;;;;;;13.40;95.80;;;;;;5077620;28;19931;-74
2021/10/23 13:34:51;;;;;;;;;;;13.40;95.70;;;;;;5077349;28;19909;-74
2021/10/23 13:37:17;;;;;;;;;;;13.40;95.70;;;;;;5094975;28;20277;-73
2021/10/23 13:39:42;;;;;;;;;;;13.40;95.80;;;;;;5095754;28;19930;-74
2021/10/23 13:42:08;;;;;;;;;;;13.50;95.80;;;;;;5095546;28;20438;-73
2021/10/23 13:44:34;;;;;;;;;;;13.50;95.70;;;;;;5095403;28;19908;-73
2021/10/23 13:46:59;;;;;;;;;;;13.50;95.60;;;;;;5095155;28;19932;-74
2021/10/23 13:49:25;;;;;;;;;;;13.60;95.80;;;;;;5095068;28;20285;-74
2021/10/23 13:51:50;;;;;;;;;;;13.60;95.70;;;;;;5094823;28;20379;-74
2021/10/23 13:54:16;;;;;;;;;;;13.60;95.70;;;;;;5095136;28;19908;-75
2021/10/23 13:56:41;;;;;;;;;;;13.70;95.70;;;;;;5095194;28;19915;-74
2021/10/23 13:59:07;;;;;;;;;;;13.70;95.70;;;;;;5095100;28;19908;-74
2021/10/23 14:01:33;;;;;;;;;;;13.70;95.70;;;;;;5095048;28;19908;-74
2021/10/23 14:03:58;;;;;;;;;;;13.80;95.70;;;;;;5094988;28;19908;-73
2021/10/23 14:06:23;;;;;;;;;;;13.80;95.70;;;;;;5094510;28;19931;-75
2021/10/23 14:08:49;;;;;;;;;;;13.70;95.60;;;;;;5094927;28;19916;-74
2021/10/23 14:11:14;;;;;;;;;;;13.70;95.60;;;;;;5094875;28;19908;-74
2021/10/23 14:13:40;;;;;;;;;;;13.70;95.60;;;;;;5094935;28;19908;-74
2021/10/23 14:16:05;;;;;;;;;;;13.60;95.60;;;;;;5094810;28;19915;-75
2021/10/23 14:18:31;;;;;;;;;;;13.60;95.70;;;;;;5094896;28;20002;-75
2021/10/23 14:20:59;;;;;;;;;;;13.60;95.70;;;;;;5076241;28;19923;-75
2021/10/23 14:23:26;;;;;;;;;;;13.60;95.70;;;;;;5094744;28;19961;-75
2021/10/23 14:25:52;;;;;;;;;;;13.60;95.70;;;;;;5076604;28;19912;-76
2021/10/23 14:31:04;;;;;;;;;;;13.50;95.70;;;;;;5094450;28;19919;-76